sensor_id;sensor_type;location;lat;lon;timestamp;P1;durP1;ratioP1;P2;durP2;ratioP2
57856;SDS011;43683;48.650;9.290;2023-05-20T00:00:46;9.18;;;5.55;;
57856;SDS011;43683;48.650;9.290;2023-05-20T00:03:13;7.07;;;4.75;;
57856;SDS011;43683;48.650;9.290;2023-05-20T00:05:39;6.07;;;4.47;;
57856;SDS011;43683;48.650;9.290;2023-05-20T00:08:04;8.45;;;4.78;;
57856;SDS011;43683;48.650;9.290;2023-05-20T00:10:33;8.88;;;4.65;;
57856;SDS011;43683;48.650;9.290;2023-05-20T00:12:59;9.05;;;4.95;;
57856;SDS011;43683;48.650;9.290;2023-05-20T00:15:25;6.60;;;4.50;;
57856;SDS011;43683;48.650;9.290;2023-05-20T00:17:50;7.07;;;4.20;;
57856;SDS011;43683;48.650;9.290;2023-05-20T00:20:16;9.20;;;4.28;;
57856;SDS011;43683;48.650;9.290;2023-05-20T00:22:41;8.20;;;4.57;;
57856;SDS011;43683;48.650;9.290;2023-05-20T00:25:07;11.60;;;4.90;;
57856;SDS011;43683;48.650;9.290;2023-05-20T00:27:33;9.25;;;5.28;;
57856;SDS011;43683;48.650;9.290;2023-05-20T00:29:58;7.03;;;4.65;;
57856;SDS011;43683;48.650;9.290;2023-05-20T00:32:24;10.10;;;4.70;;
57856;SDS011;43683;48.650;9.290;2023-05-20T00:34:56;9.90;;;5.10;;
57856;SDS011;43683;48.650;9.290;2023-05-20T00:37:22;6.97;;;4.57;;
57856;SDS011;43683;48.650;9.290;2023-05-20T00:39:48;6.93;;;4.95;;
57856;SDS011;43683;48.650;9.290;2023-05-20T00:42:23;8.93;;;5.10;;
57856;SDS011;43683;48.650;9.290;2023-05-20T00:44:50;9.75;;;4.85;;
57856;SDS011;43683;48.650;9.290;2023-05-20T00:47:16;6.78;;;4.25;;
57856;SDS011;43683;48.650;9.290;2023-05-20T00:49:43;7.18;;;4.93;;
57856;SDS011;43683;48.650;9.290;2023-05-20T00:52:10;6.53;;;4.32;;
57856;SDS011;43683;48.650;9.290;2023-05-20T00:54:36;8.73;;;4.65;;
57856;SDS011;43683;48.650;9.290;2023-05-20T00:57:03;7.40;;;4.60;;
57856;SDS011;43683;48.650;9.290;2023-05-20T00:59:30;9.40;;;4.53;;
57856;SDS011;43683;48.650;9.290;2023-05-20T01:01:56;8.85;;;4.93;;
57856;SDS011;43683;48.650;9.290;2023-05-20T01:04:23;7.90;;;4.15;;
57856;SDS011;43683;48.650;9.290;2023-05-20T01:06:48;6.47;;;4.05;;
57856;SDS011;43683;48.650;9.290;2023-05-20T01:09:14;6.97;;;4.32;;
57856;SDS011;43683;48.650;9.290;2023-05-20T01:12:15;8.77;;;4.70;;
57856;SDS011;43683;48.650;9.290;2023-05-20T01:14:34;7.85;;;4.38;;
57856;SDS011;43683;48.650;9.290;2023-05-20T01:17:02;7.00;;;4.13;;
57856;SDS011;43683;48.650;9.290;2023-05-20T01:19:35;7.25;;;4.38;;
57856;SDS011;43683;48.650;9.290;2023-05-20T01:22:06;6.15;;;4.13;;
57856;SDS011;43683;48.650;9.290;2023-05-20T01:24:36;6.78;;;4.47;;
57856;SDS011;43683;48.650;9.290;2023-05-20T01:27:09;8.27;;;4.13;;
57856;SDS011;43683;48.650;9.290;2023-05-20T01:29:37;7.47;;;5.03;;
57856;SDS011;43683;48.650;9.290;2023-05-20T01:32:04;8.32;;;4.35;;
57856;SDS011;43683;48.650;9.290;2023-05-20T01:34:33;6.63;;;4.03;;
57856;SDS011;43683;48.650;9.290;2023-05-20T01:37:00;6.57;;;4.47;;
57856;SDS011;43683;48.650;9.290;2023-05-20T01:39:28;7.68;;;4.40;;
57856;SDS011;43683;48.650;9.290;2023-05-20T01:41:55;7.60;;;4.35;;
57856;SDS011;43683;48.650;9.290;2023-05-20T01:44:21;8.02;;;4.72;;
57856;SDS011;43683;48.650;9.290;2023-05-20T01:46:49;11.65;;;5.20;;
57856;SDS011;43683;48.650;9.290;2023-05-20T01:49:15;9.23;;;4.70;;
57856;SDS011;43683;48.650;9.290;2023-05-20T01:51:40;8.90;;;4.50;;
57856;SDS011;43683;48.650;9.290;2023-05-20T01:54:06;7.90;;;4.75;;
57856;SDS011;43683;48.650;9.290;2023-05-20T01:56:31;6.40;;;4.65;;
57856;SDS011;43683;48.650;9.290;2023-05-20T01:58:57;8.95;;;5.30;;
57856;SDS011;43683;48.650;9.290;2023-05-20T02:01:22;9.77;;;5.18;;
57856;SDS011;43683;48.650;9.290;2023-05-20T02:03:48;8.45;;;4.95;;
57856;SDS011;43683;48.650;9.290;2023-05-20T02:06:13;9.02;;;5.35;;
57856;SDS011;43683;48.650;9.290;2023-05-20T02:08:39;7.20;;;4.55;;
57856;SDS011;43683;48.650;9.290;2023-05-20T02:11:04;7.68;;;4.80;;
57856;SDS011;43683;48.650;9.290;2023-05-20T02:13:30;8.00;;;4.72;;
57856;SDS011;43683;48.650;9.290;2023-05-20T02:15:55;8.25;;;5.13;;
57856;SDS011;43683;48.650;9.290;2023-05-20T02:18:21;8.70;;;5.03;;
57856;SDS011;43683;48.650;9.290;2023-05-20T02:20:47;9.48;;;5.00;;
57856;SDS011;43683;48.650;9.290;2023-05-20T02:23:12;10.02;;;5.10;;
57856;SDS011;43683;48.650;9.290;2023-05-20T02:25:39;8.35;;;4.88;;
57856;SDS011;43683;48.650;9.290;2023-05-20T02:28:04;8.20;;;4.85;;
57856;SDS011;43683;48.650;9.290;2023-05-20T02:30:34;8.32;;;4.43;;
57856;SDS011;43683;48.650;9.290;2023-05-20T02:33:03;7.22;;;4.72;;
57856;SDS011;43683;48.650;9.290;2023-05-20T02:35:28;8.52;;;4.75;;
57856;SDS011;43683;48.650;9.290;2023-05-20T02:37:54;8.73;;;5.13;;
57856;SDS011;43683;48.650;9.290;2023-05-20T02:40:19;7.78;;;4.30;;
57856;SDS011;43683;48.650;9.290;2023-05-20T02:42:45;8.88;;;5.68;;
57856;SDS011;43683;48.650;9.290;2023-05-20T02:45:11;8.27;;;5.57;;
57856;SDS011;43683;48.650;9.290;2023-05-20T02:47:36;9.18;;;4.95;;
57856;SDS011;43683;48.650;9.290;2023-05-20T02:50:02;7.32;;;4.88;;
57856;SDS011;43683;48.650;9.290;2023-05-20T02:52:28;9.38;;;5.50;;
57856;SDS011;43683;48.650;9.290;2023-05-20T02:54:53;8.43;;;5.38;;
57856;SDS011;43683;48.650;9.290;2023-05-20T02:57:19;8.57;;;4.95;;
57856;SDS011;43683;48.650;9.290;2023-05-20T02:59:44;8.30;;;5.05;;
57856;SDS011;43683;48.650;9.290;2023-05-20T03:02:10;8.00;;;5.05;;
57856;SDS011;43683;48.650;9.290;2023-05-20T03:04:35;7.80;;;4.95;;
57856;SDS011;43683;48.650;9.290;2023-05-20T03:07:04;7.78;;;5.03;;
57856;SDS011;43683;48.650;9.290;2023-05-20T03:09:31;7.35;;;5.18;;
57856;SDS011;43683;48.650;9.290;2023-05-20T03:11:57;8.73;;;5.38;;
57856;SDS011;43683;48.650;9.290;2023-05-20T03:14:22;8.68;;;5.28;;
57856;SDS011;43683;48.650;9.290;2023-05-20T03:16:48;7.55;;;5.00;;
57856;SDS011;43683;48.650;9.290;2023-05-20T03:19:13;8.70;;;5.03;;
57856;SDS011;43683;48.650;9.290;2023-05-20T03:21:40;9.10;;;5.25;;
57856;SDS011;43683;48.650;9.290;2023-05-20T03:24:05;7.75;;;5.07;;
57856;SDS011;43683;48.650;9.290;2023-05-20T03:26:31;8.35;;;5.07;;
57856;SDS011;43683;48.650;9.290;2023-05-20T03:28:57;7.28;;;4.97;;
57856;SDS011;43683;48.650;9.290;2023-05-20T03:31:23;8.52;;;5.63;;
57856;SDS011;43683;48.650;9.290;2023-05-20T03:33:49;7.80;;;6.05;;
57856;SDS011;43683;48.650;9.290;2023-05-20T03:36:15;9.25;;;5.13;;
57856;SDS011;43683;48.650;9.290;2023-05-20T03:38:40;9.05;;;5.65;;
57856;SDS011;43683;48.650;9.290;2023-05-20T03:41:06;8.95;;;5.63;;
57856;SDS011;43683;48.650;9.290;2023-05-20T03:43:31;7.95;;;4.97;;
57856;SDS011;43683;48.650;9.290;2023-05-20T03:45:57;9.35;;;5.47;;
57856;SDS011;43683;48.650;9.290;2023-05-20T03:48:22;9.85;;;6.28;;
57856;SDS011;43683;48.650;9.290;2023-05-20T03:50:48;8.80;;;5.20;;
57856;SDS011;43683;48.650;9.290;2023-05-20T03:53:14;7.22;;;4.72;;
57856;SDS011;43683;48.650;9.290;2023-05-20T03:55:39;8.23;;;5.25;;
57856;SDS011;43683;48.650;9.290;2023-05-20T03:58:06;8.63;;;5.30;;
57856;SDS011;43683;48.650;9.290;2023-05-20T04:00:32;9.98;;;5.53;;
57856;SDS011;43683;48.650;9.290;2023-05-20T04:02:58;6.82;;;4.50;;
57856;SDS011;43683;48.650;9.290;2023-05-20T04:05:24;8.30;;;5.03;;
57856;SDS011;43683;48.650;9.290;2023-05-20T04:07:50;6.47;;;4.43;;
57856;SDS011;43683;48.650;9.290;2023-05-20T04:10:17;9.43;;;4.88;;
57856;SDS011;43683;48.650;9.290;2023-05-20T04:12:43;7.72;;;5.07;;
57856;SDS011;43683;48.650;9.290;2023-05-20T04:15:09;7.07;;;4.78;;
57856;SDS011;43683;48.650;9.290;2023-05-20T04:17:34;8.50;;;5.22;;
57856;SDS011;43683;48.650;9.290;2023-05-20T04:20:02;8.52;;;6.32;;
57856;SDS011;43683;48.650;9.290;2023-05-20T04:22:31;6.97;;;5.00;;
57856;SDS011;43683;48.650;9.290;2023-05-20T04:24:56;7.88;;;4.88;;
57856;SDS011;43683;48.650;9.290;2023-05-20T04:27:23;6.30;;;4.82;;
57856;SDS011;43683;48.650;9.290;2023-05-20T04:29:49;8.80;;;5.00;;
57856;SDS011;43683;48.650;9.290;2023-05-20T04:32:17;7.72;;;4.85;;
57856;SDS011;43683;48.650;9.290;2023-05-20T04:34:43;7.53;;;5.25;;
57856;SDS011;43683;48.650;9.290;2023-05-20T04:37:10;8.85;;;4.80;;
57856;SDS011;43683;48.650;9.290;2023-05-20T04:39:37;7.50;;;4.80;;
57856;SDS011;43683;48.650;9.290;2023-05-20T04:42:03;7.15;;;4.60;;
57856;SDS011;43683;48.650;9.290;2023-05-20T04:44:29;7.80;;;4.40;;
57856;SDS011;43683;48.650;9.290;2023-05-20T04:46:55;7.70;;;4.43;;
57856;SDS011;43683;48.650;9.290;2023-05-20T04:49:24;7.38;;;4.35;;
57856;SDS011;43683;48.650;9.290;2023-05-20T04:51:50;5.93;;;4.72;;
57856;SDS011;43683;48.650;9.290;2023-05-20T04:54:16;7.63;;;4.55;;
57856;SDS011;43683;48.650;9.290;2023-05-20T04:56:44;7.28;;;4.55;;
57856;SDS011;43683;48.650;9.290;2023-05-20T04:59:10;7.05;;;4.45;;
57856;SDS011;43683;48.650;9.290;2023-05-20T05:01:36;8.27;;;5.05;;
57856;SDS011;43683;48.650;9.290;2023-05-20T05:04:02;8.02;;;4.65;;
57856;SDS011;43683;48.650;9.290;2023-05-20T05:06:27;6.72;;;4.13;;
57856;SDS011;43683;48.650;9.290;2023-05-20T05:08:53;8.07;;;4.45;;
57856;SDS011;43683;48.650;9.290;2023-05-20T05:11:18;7.93;;;4.68;;
57856;SDS011;43683;48.650;9.290;2023-05-20T05:13:45;7.13;;;4.03;;
57856;SDS011;43683;48.650;9.290;2023-05-20T05:16:11;6.20;;;4.38;;
57856;SDS011;43683;48.650;9.290;2023-05-20T05:18:37;7.55;;;4.55;;
57856;SDS011;43683;48.650;9.290;2023-05-20T05:21:03;6.82;;;4.38;;
57856;SDS011;43683;48.650;9.290;2023-05-20T05:23:29;7.88;;;3.90;;
57856;SDS011;43683;48.650;9.290;2023-05-20T05:25:55;7.15;;;4.88;;
57856;SDS011;43683;48.650;9.290;2023-05-20T05:28:21;7.38;;;4.22;;
57856;SDS011;43683;48.650;9.290;2023-05-20T05:30:47;6.80;;;4.15;;
57856;SDS011;43683;48.650;9.290;2023-05-20T05:33:16;7.40;;;4.63;;
57856;SDS011;43683;48.650;9.290;2023-05-20T05:35:41;7.57;;;4.35;;
57856;SDS011;43683;48.650;9.290;2023-05-20T05:38:08;8.38;;;4.32;;
57856;SDS011;43683;48.650;9.290;2023-05-20T05:40:34;5.80;;;4.15;;
57856;SDS011;43683;48.650;9.290;2023-05-20T05:43:00;8.65;;;4.97;;
57856;SDS011;43683;48.650;9.290;2023-05-20T05:45:25;5.75;;;4.00;;
57856;SDS011;43683;48.650;9.290;2023-05-20T05:47:51;6.25;;;3.83;;
57856;SDS011;43683;48.650;9.290;2023-05-20T05:50:17;6.30;;;3.97;;
57856;SDS011;43683;48.650;9.290;2023-05-20T05:52:42;6.80;;;3.90;;
57856;SDS011;43683;48.650;9.290;2023-05-20T05:55:08;5.25;;;3.70;;
57856;SDS011;43683;48.650;9.290;2023-05-20T05:57:34;6.60;;;4.03;;
57856;SDS011;43683;48.650;9.290;2023-05-20T06:00:00;6.18;;;3.95;;
57856;SDS011;43683;48.650;9.290;2023-05-20T06:02:25;5.78;;;3.63;;
57856;SDS011;43683;48.650;9.290;2023-05-20T06:04:51;6.60;;;3.95;;
57856;SDS011;43683;48.650;9.290;2023-05-20T06:07:17;6.53;;;3.70;;
57856;SDS011;43683;48.650;9.290;2023-05-20T06:09:43;7.82;;;3.45;;
57856;SDS011;43683;48.650;9.290;2023-05-20T06:12:09;8.25;;;4.25;;
57856;SDS011;43683;48.650;9.290;2023-05-20T06:14:34;6.15;;;3.78;;
57856;SDS011;43683;48.650;9.290;2023-05-20T06:17:00;7.70;;;4.00;;
57856;SDS011;43683;48.650;9.290;2023-05-20T06:19:26;7.75;;;4.55;;
57856;SDS011;43683;48.650;9.290;2023-05-20T06:21:52;5.40;;;3.85;;
57856;SDS011;43683;48.650;9.290;2023-05-20T06:24:17;6.47;;;4.18;;
57856;SDS011;43683;48.650;9.290;2023-05-20T06:26:43;5.03;;;3.45;;
57856;SDS011;43683;48.650;9.290;2023-05-20T06:29:09;6.80;;;4.20;;
57856;SDS011;43683;48.650;9.290;2023-05-20T06:31:35;6.47;;;4.00;;
57856;SDS011;43683;48.650;9.290;2023-05-20T06:34:01;6.20;;;3.92;;
57856;SDS011;43683;48.650;9.290;2023-05-20T06:36:26;6.05;;;3.60;;
57856;SDS011;43683;48.650;9.290;2023-05-20T06:38:53;6.10;;;4.03;;
57856;SDS011;43683;48.650;9.290;2023-05-20T06:41:18;7.25;;;3.90;;
57856;SDS011;43683;48.650;9.290;2023-05-20T06:43:45;7.20;;;3.60;;
57856;SDS011;43683;48.650;9.290;2023-05-20T06:46:11;7.25;;;3.95;;
57856;SDS011;43683;48.650;9.290;2023-05-20T06:48:36;6.63;;;4.00;;
57856;SDS011;43683;48.650;9.290;2023-05-20T06:51:02;5.60;;;3.78;;
57856;SDS011;43683;48.650;9.290;2023-05-20T06:53:30;6.57;;;4.03;;
57856;SDS011;43683;48.650;9.290;2023-05-20T06:55:56;5.78;;;3.60;;
57856;SDS011;43683;48.650;9.290;2023-05-20T06:58:21;7.25;;;3.90;;
57856;SDS011;43683;48.650;9.290;2023-05-20T07:00:47;5.07;;;3.88;;
57856;SDS011;43683;48.650;9.290;2023-05-20T07:03:12;7.63;;;3.65;;
57856;SDS011;43683;48.650;9.290;2023-05-20T07:05:38;6.28;;;3.78;;
57856;SDS011;43683;48.650;9.290;2023-05-20T07:08:03;7.63;;;3.90;;
57856;SDS011;43683;48.650;9.290;2023-05-20T07:10:29;8.38;;;3.85;;
57856;SDS011;43683;48.650;9.290;2023-05-20T07:12:55;7.40;;;4.13;;
57856;SDS011;43683;48.650;9.290;2023-05-20T07:15:20;5.75;;;3.80;;
57856;SDS011;43683;48.650;9.290;2023-05-20T07:17:46;6.22;;;3.92;;
57856;SDS011;43683;48.650;9.290;2023-05-20T07:20:11;5.43;;;3.80;;
57856;SDS011;43683;48.650;9.290;2023-05-20T07:22:37;7.03;;;4.30;;
57856;SDS011;43683;48.650;9.290;2023-05-20T07:25:02;6.22;;;3.50;;
57856;SDS011;43683;48.650;9.290;2023-05-20T07:27:28;7.32;;;3.90;;
57856;SDS011;43683;48.650;9.290;2023-05-20T07:29:54;5.65;;;3.92;;
57856;SDS011;43683;48.650;9.290;2023-05-20T07:32:19;6.90;;;4.15;;
57856;SDS011;43683;48.650;9.290;2023-05-20T07:34:45;6.80;;;3.72;;
57856;SDS011;43683;48.650;9.290;2023-05-20T07:37:10;8.15;;;4.28;;
57856;SDS011;43683;48.650;9.290;2023-05-20T07:39:36;7.90;;;4.22;;
57856;SDS011;43683;48.650;9.290;2023-05-20T07:42:02;6.50;;;4.30;;
57856;SDS011;43683;48.650;9.290;2023-05-20T07:44:28;8.60;;;4.35;;
57856;SDS011;43683;48.650;9.290;2023-05-20T07:46:54;7.20;;;4.03;;
57856;SDS011;43683;48.650;9.290;2023-05-20T07:49:20;6.57;;;4.05;;
57856;SDS011;43683;48.650;9.290;2023-05-20T07:51:45;5.80;;;3.90;;
57856;SDS011;43683;48.650;9.290;2023-05-20T07:54:11;5.93;;;3.88;;
57856;SDS011;43683;48.650;9.290;2023-05-20T07:56:36;6.68;;;4.03;;
57856;SDS011;43683;48.650;9.290;2023-05-20T07:59:02;7.22;;;4.40;;
57856;SDS011;43683;48.650;9.290;2023-05-20T08:01:28;7.80;;;4.50;;
57856;SDS011;43683;48.650;9.290;2023-05-20T08:03:54;7.00;;;4.10;;
57856;SDS011;43683;48.650;9.290;2023-05-20T08:06:19;6.35;;;4.30;;
57856;SDS011;43683;48.650;9.290;2023-05-20T08:08:45;6.90;;;4.18;;
57856;SDS011;43683;48.650;9.290;2023-05-20T08:11:11;7.00;;;3.80;;
57856;SDS011;43683;48.650;9.290;2023-05-20T08:13:37;6.90;;;4.45;;
57856;SDS011;43683;48.650;9.290;2023-05-20T08:16:03;6.57;;;4.40;;
57856;SDS011;43683;48.650;9.290;2023-05-20T08:18:33;8.10;;;4.63;;
57856;SDS011;43683;48.650;9.290;2023-05-20T08:21:01;8.57;;;4.30;;
57856;SDS011;43683;48.650;9.290;2023-05-20T08:23:27;7.82;;;4.90;;
57856;SDS011;43683;48.650;9.290;2023-05-20T08:25:53;9.30;;;4.60;;
57856;SDS011;43683;48.650;9.290;2023-05-20T08:28:18;6.70;;;3.88;;
57856;SDS011;43683;48.650;9.290;2023-05-20T08:30:44;8.18;;;4.05;;
57856;SDS011;43683;48.650;9.290;2023-05-20T08:33:11;6.82;;;4.22;;
57856;SDS011;43683;48.650;9.290;2023-05-20T08:35:37;7.15;;;5.10;;
57856;SDS011;43683;48.650;9.290;2023-05-20T08:38:04;7.13;;;4.45;;
57856;SDS011;43683;48.650;9.290;2023-05-20T08:40:30;6.85;;;4.10;;
57856;SDS011;43683;48.650;9.290;2023-05-20T08:42:58;7.45;;;4.30;;
57856;SDS011;43683;48.650;9.290;2023-05-20T08:45:25;6.32;;;4.00;;
57856;SDS011;43683;48.650;9.290;2023-05-20T08:47:51;6.72;;;4.25;;
57856;SDS011;43683;48.650;9.290;2023-05-20T08:50:17;6.38;;;4.30;;
57856;SDS011;43683;48.650;9.290;2023-05-20T08:52:44;7.45;;;4.20;;
57856;SDS011;43683;48.650;9.290;2023-05-20T08:55:15;7.10;;;4.10;;
57856;SDS011;43683;48.650;9.290;2023-05-20T08:57:46;7.28;;;3.95;;
57856;SDS011;43683;48.650;9.290;2023-05-20T09:00:14;5.72;;;3.70;;
57856;SDS011;43683;48.650;9.290;2023-05-20T09:02:41;6.80;;;4.13;;
57856;SDS011;43683;48.650;9.290;2023-05-20T09:05:08;5.95;;;3.65;;
57856;SDS011;43683;48.650;9.290;2023-05-20T09:07:35;7.05;;;4.40;;
57856;SDS011;43683;48.650;9.290;2023-05-20T09:10:01;7.47;;;4.10;;
57856;SDS011;43683;48.650;9.290;2023-05-20T09:12:27;6.87;;;4.07;;
57856;SDS011;43683;48.650;9.290;2023-05-20T09:14:53;6.07;;;4.10;;
57856;SDS011;43683;48.650;9.290;2023-05-20T09:17:20;5.97;;;4.25;;
57856;SDS011;43683;48.650;9.290;2023-05-20T09:19:50;7.40;;;3.97;;
57856;SDS011;43683;48.650;9.290;2023-05-20T09:22:23;7.07;;;5.15;;
57856;SDS011;43683;48.650;9.290;2023-05-20T09:24:50;6.45;;;4.07;;
57856;SDS011;43683;48.650;9.290;2023-05-20T09:27:16;5.88;;;4.43;;
57856;SDS011;43683;48.650;9.290;2023-05-20T09:29:42;6.25;;;4.13;;
57856;SDS011;43683;48.650;9.290;2023-05-20T09:32:08;6.65;;;4.13;;
57856;SDS011;43683;48.650;9.290;2023-05-20T09:34:35;8.02;;;4.30;;
57856;SDS011;43683;48.650;9.290;2023-05-20T09:37:02;6.78;;;4.28;;
57856;SDS011;43683;48.650;9.290;2023-05-20T09:39:29;6.80;;;4.00;;
57856;SDS011;43683;48.650;9.290;2023-05-20T09:42:01;6.28;;;3.90;;
57856;SDS011;43683;48.650;9.290;2023-05-20T09:44:50;7.57;;;4.10;;
57856;SDS011;43683;48.650;9.290;2023-05-20T09:47:18;6.53;;;4.60;;
57856;SDS011;43683;48.650;9.290;2023-05-20T09:49:44;6.18;;;3.70;;
57856;SDS011;43683;48.650;9.290;2023-05-20T09:52:11;5.97;;;3.42;;
57856;SDS011;43683;48.650;9.290;2023-05-20T09:54:39;6.75;;;4.03;;
57856;SDS011;43683;48.650;9.290;2023-05-20T09:57:06;5.85;;;3.97;;
57856;SDS011;43683;48.650;9.290;2023-05-20T09:59:31;5.97;;;3.83;;
57856;SDS011;43683;48.650;9.290;2023-05-20T10:04:24;6.25;;;3.83;;
57856;SDS011;43683;48.650;9.290;2023-05-20T10:06:57;6.05;;;3.65;;
57856;SDS011;43683;48.650;9.290;2023-05-20T10:12:25;6.65;;;3.60;;
57856;SDS011;43683;48.650;9.290;2023-05-20T10:15:15;7.50;;;3.58;;
57856;SDS011;43683;48.650;9.290;2023-05-20T10:20:25;5.72;;;3.60;;
57856;SDS011;43683;48.650;9.290;2023-05-20T10:22:56;5.65;;;3.67;;
57856;SDS011;43683;48.650;9.290;2023-05-20T10:25:24;5.63;;;3.38;;
57856;SDS011;43683;48.650;9.290;2023-05-20T10:27:51;4.60;;;3.58;;
57856;SDS011;43683;48.650;9.290;2023-05-20T10:30:27;5.55;;;3.50;;
57856;SDS011;43683;48.650;9.290;2023-05-20T10:32:54;5.88;;;3.70;;
57856;SDS011;43683;48.650;9.290;2023-05-20T10:35:22;5.78;;;3.60;;
57856;SDS011;43683;48.650;9.290;2023-05-20T10:37:52;5.38;;;3.22;;
57856;SDS011;43683;48.650;9.290;2023-05-20T10:42:45;5.35;;;3.25;;
57856;SDS011;43683;48.650;9.290;2023-05-20T10:45:12;6.68;;;3.55;;
57856;SDS011;43683;48.650;9.290;2023-05-20T10:47:53;6.28;;;3.28;;
57856;SDS011;43683;48.650;9.290;2023-05-20T10:53:02;4.47;;;3.22;;
57856;SDS011;43683;48.650;9.290;2023-05-20T10:55:36;4.47;;;2.92;;
57856;SDS011;43683;48.650;9.290;2023-05-20T11:00:28;4.78;;;3.35;;
57856;SDS011;43683;48.650;9.290;2023-05-20T11:02:54;5.45;;;3.20;;
57856;SDS011;43683;48.650;9.290;2023-05-20T11:05:20;5.40;;;3.47;;
57856;SDS011;43683;48.650;9.290;2023-05-20T11:07:46;7.03;;;3.00;;
57856;SDS011;43683;48.650;9.290;2023-05-20T11:10:12;5.78;;;3.42;;
57856;SDS011;43683;48.650;9.290;2023-05-20T11:12:38;4.93;;;3.17;;
57856;SDS011;43683;48.650;9.290;2023-05-20T11:15:03;6.15;;;3.53;;
57856;SDS011;43683;48.650;9.290;2023-05-20T11:17:29;5.25;;;3.38;;
57856;SDS011;43683;48.650;9.290;2023-05-20T11:19:55;5.38;;;3.10;;
57856;SDS011;43683;48.650;9.290;2023-05-20T11:22:24;5.25;;;3.17;;
57856;SDS011;43683;48.650;9.290;2023-05-20T11:24:50;6.15;;;3.10;;
57856;SDS011;43683;48.650;9.290;2023-05-20T11:27:16;5.20;;;3.10;;
57856;SDS011;43683;48.650;9.290;2023-05-20T11:29:42;4.60;;;3.10;;
57856;SDS011;43683;48.650;9.290;2023-05-20T11:32:07;4.93;;;2.97;;
57856;SDS011;43683;48.650;9.290;2023-05-20T11:34:36;3.70;;;2.42;;
57856;SDS011;43683;48.650;9.290;2023-05-20T11:37:06;5.43;;;3.17;;
57856;SDS011;43683;48.650;9.290;2023-05-20T11:39:33;3.83;;;2.83;;
57856;SDS011;43683;48.650;9.290;2023-05-20T11:41:58;4.93;;;3.15;;
57856;SDS011;43683;48.650;9.290;2023-05-20T11:44:24;6.28;;;3.35;;
57856;SDS011;43683;48.650;9.290;2023-05-20T11:46:50;3.88;;;2.35;;
57856;SDS011;43683;48.650;9.290;2023-05-20T11:49:15;5.40;;;3.28;;
57856;SDS011;43683;48.650;9.290;2023-05-20T11:51:42;4.38;;;3.00;;
57856;SDS011;43683;48.650;9.290;2023-05-20T11:54:08;5.50;;;2.75;;
57856;SDS011;43683;48.650;9.290;2023-05-20T11:56:38;4.85;;;3.03;;
57856;SDS011;43683;48.650;9.290;2023-05-20T11:59:05;4.93;;;3.10;;
57856;SDS011;43683;48.650;9.290;2023-05-20T12:01:34;7.38;;;3.25;;
57856;SDS011;43683;48.650;9.290;2023-05-20T12:04:02;4.95;;;2.97;;
57856;SDS011;43683;48.650;9.290;2023-05-20T12:06:29;5.22;;;3.17;;
57856;SDS011;43683;48.650;9.290;2023-05-20T12:08:55;4.57;;;3.10;;
57856;SDS011;43683;48.650;9.290;2023-05-20T12:11:21;5.28;;;2.90;;
57856;SDS011;43683;48.650;9.290;2023-05-20T12:13:46;5.25;;;3.00;;
57856;SDS011;43683;48.650;9.290;2023-05-20T12:16:12;4.72;;;2.80;;
57856;SDS011;43683;48.650;9.290;2023-05-20T12:18:37;3.97;;;2.80;;
57856;SDS011;43683;48.650;9.290;2023-05-20T12:21:03;4.65;;;3.03;;
57856;SDS011;43683;48.650;9.290;2023-05-20T12:23:28;4.68;;;2.83;;
57856;SDS011;43683;48.650;9.290;2023-05-20T12:25:57;5.35;;;2.92;;
57856;SDS011;43683;48.650;9.290;2023-05-20T12:28:23;4.82;;;3.05;;
57856;SDS011;43683;48.650;9.290;2023-05-20T12:30:48;4.63;;;2.90;;
57856;SDS011;43683;48.650;9.290;2023-05-20T12:33:14;6.07;;;3.13;;
57856;SDS011;43683;48.650;9.290;2023-05-20T12:35:40;5.25;;;3.33;;
57856;SDS011;43683;48.650;9.290;2023-05-20T12:38:07;3.50;;;2.60;;
57856;SDS011;43683;48.650;9.290;2023-05-20T12:40:34;4.83;;;3.00;;
57856;SDS011;43683;48.650;9.290;2023-05-20T12:43:00;5.22;;;2.75;;
57856;SDS011;43683;48.650;9.290;2023-05-20T12:45:27;6.47;;;3.22;;
57856;SDS011;43683;48.650;9.290;2023-05-20T12:47:53;3.45;;;2.63;;
57856;SDS011;43683;48.650;9.290;2023-05-20T12:50:20;4.75;;;2.97;;
57856;SDS011;43683;48.650;9.290;2023-05-20T12:52:46;5.13;;;2.70;;
57856;SDS011;43683;48.650;9.290;2023-05-20T12:55:11;4.55;;;3.08;;
57856;SDS011;43683;48.650;9.290;2023-05-20T12:57:40;5.32;;;2.78;;
57856;SDS011;43683;48.650;9.290;2023-05-20T13:00:10;4.55;;;2.72;;
57856;SDS011;43683;48.650;9.290;2023-05-20T13:02:36;4.88;;;2.70;;
57856;SDS011;43683;48.650;9.290;2023-05-20T13:05:02;4.57;;;2.90;;
57856;SDS011;43683;48.650;9.290;2023-05-20T13:07:29;4.32;;;2.50;;
57856;SDS011;43683;48.650;9.290;2023-05-20T13:09:55;5.10;;;2.80;;
57856;SDS011;43683;48.650;9.290;2023-05-20T13:12:21;4.95;;;3.10;;
57856;SDS011;43683;48.650;9.290;2023-05-20T13:14:46;3.72;;;2.67;;
57856;SDS011;43683;48.650;9.290;2023-05-20T13:17:12;5.93;;;2.85;;
57856;SDS011;43683;48.650;9.290;2023-05-20T13:19:38;3.10;;;2.53;;
57856;SDS011;43683;48.650;9.290;2023-05-20T13:22:04;3.88;;;2.53;;
57856;SDS011;43683;48.650;9.290;2023-05-20T13:24:33;4.30;;;2.67;;
57856;SDS011;43683;48.650;9.290;2023-05-20T13:26:59;5.55;;;2.80;;
57856;SDS011;43683;48.650;9.290;2023-05-20T13:29:25;4.65;;;2.70;;
57856;SDS011;43683;48.650;9.290;2023-05-20T13:31:51;4.03;;;2.70;;
57856;SDS011;43683;48.650;9.290;2023-05-20T13:34:17;5.13;;;2.60;;
57856;SDS011;43683;48.650;9.290;2023-05-20T13:36:43;3.90;;;2.60;;
57856;SDS011;43683;48.650;9.290;2023-05-20T13:39:09;5.13;;;2.40;;
57856;SDS011;43683;48.650;9.290;2023-05-20T13:41:35;4.68;;;2.50;;
57856;SDS011;43683;48.650;9.290;2023-05-20T13:44:01;3.50;;;2.50;;
57856;SDS011;43683;48.650;9.290;2023-05-20T13:46:27;4.63;;;2.42;;
57856;SDS011;43683;48.650;9.290;2023-05-20T13:48:52;4.45;;;3.15;;
57856;SDS011;43683;48.650;9.290;2023-05-20T13:51:18;5.72;;;2.70;;
57856;SDS011;43683;48.650;9.290;2023-05-20T13:53:43;3.67;;;2.47;;
57856;SDS011;43683;48.650;9.290;2023-05-20T13:56:09;3.50;;;2.33;;
57856;SDS011;43683;48.650;9.290;2023-05-20T13:58:35;3.53;;;2.20;;
57856;SDS011;43683;48.650;9.290;2023-05-20T14:01:01;4.60;;;2.30;;
57856;SDS011;43683;48.650;9.290;2023-05-20T14:03:28;4.35;;;2.20;;
57856;SDS011;43683;48.650;9.290;2023-05-20T14:05:54;3.17;;;2.20;;
57856;SDS011;43683;48.650;9.290;2023-05-20T14:08:20;2.92;;;2.00;;
57856;SDS011;43683;48.650;9.290;2023-05-20T14:10:46;2.80;;;2.05;;
57856;SDS011;43683;48.650;9.290;2023-05-20T14:13:11;3.65;;;1.90;;
57856;SDS011;43683;48.650;9.290;2023-05-20T14:15:37;4.93;;;2.60;;
57856;SDS011;43683;48.650;9.290;2023-05-20T14:18:02;4.75;;;2.40;;
57856;SDS011;43683;48.650;9.290;2023-05-20T14:20:28;3.72;;;2.28;;
57856;SDS011;43683;48.650;9.290;2023-05-20T14:22:54;2.80;;;1.93;;
57856;SDS011;43683;48.650;9.290;2023-05-20T14:25:19;2.43;;;2.07;;
57856;SDS011;43683;48.650;9.290;2023-05-20T14:27:45;3.33;;;2.17;;
57856;SDS011;43683;48.650;9.290;2023-05-20T14:30:11;3.05;;;2.42;;
57856;SDS011;43683;48.650;9.290;2023-05-20T14:32:37;4.57;;;2.60;;
57856;SDS011;43683;48.650;9.290;2023-05-20T14:35:02;6.72;;;2.53;;
57856;SDS011;43683;48.650;9.290;2023-05-20T14:37:28;3.88;;;2.50;;
57856;SDS011;43683;48.650;9.290;2023-05-20T14:39:54;3.95;;;2.35;;
57856;SDS011;43683;48.650;9.290;2023-05-20T14:42:20;3.97;;;2.30;;
57856;SDS011;43683;48.650;9.290;2023-05-20T14:44:46;4.35;;;2.30;;
57856;SDS011;43683;48.650;9.290;2023-05-20T14:47:11;3.95;;;2.65;;
57856;SDS011;43683;48.650;9.290;2023-05-20T14:49:40;3.92;;;2.65;;
57856;SDS011;43683;48.650;9.290;2023-05-20T14:52:08;3.83;;;2.45;;
57856;SDS011;43683;48.650;9.290;2023-05-20T14:54:33;7.88;;;2.35;;
57856;SDS011;43683;48.650;9.290;2023-05-20T14:56:59;4.70;;;2.45;;
57856;SDS011;43683;48.650;9.290;2023-05-20T14:59:25;4.47;;;2.50;;